createdAt,value
2019-03-24T00:09:37.407Z,22
2019-03-24T00:19:44.931Z,19
2019-03-24T00:29:52.080Z,22
2019-03-24T00:39:58.425Z,22
2019-03-24T00:46:11.439Z,23
2019-03-24T00:56:17.666Z,18
2019-03-24T01:06:25.554Z,27
2019-03-24T01:16:33.054Z,28
2019-03-24T01:26:37.812Z,39
2019-03-24T01:36:44.531Z,35
2019-03-24T01:46:48.976Z,32
2019-03-24T01:56:53.725Z,22
2019-03-24T02:06:59.400Z,19
2019-03-24T02:17:06.838Z,18
2019-03-24T02:27:13.590Z,20
2019-03-24T02:37:21.737Z,18
2019-03-24T02:47:29.387Z,20
2019-03-24T02:57:38.102Z,20
2019-03-24T03:07:45.599Z,18
2019-03-24T03:17:16.051Z,18
2019-03-24T03:27:23.178Z,21
2019-03-24T03:37:32.528Z,22
2019-03-24T03:47:40.677Z,17
2019-03-24T03:57:47.363Z,18
2019-03-24T04:07:55.729Z,18
2019-03-24T04:18:01.411Z,17
2019-03-24T04:28:09.885Z,17
2019-03-24T04:38:18.132Z,19
2019-03-24T04:48:25.067Z,19
2019-03-24T04:58:31.944Z,20
2019-03-24T05:08:37.889Z,15
2019-03-24T05:18:45.430Z,17
2019-03-24T05:28:52.035Z,20
2019-03-24T05:38:57.376Z,16
2019-03-24T05:48:11.460Z,19
2019-03-24T05:58:17.974Z,16
2019-03-24T06:08:23.672Z,16
2019-03-24T06:18:31.632Z,16
2019-03-24T06:28:37.944Z,14
2019-03-24T06:38:45.147Z,14
2019-03-24T06:48:49.787Z,15
2019-03-24T06:58:57.949Z,14
2019-03-24T07:09:04.801Z,14
2019-03-24T07:19:11.462Z,13
2019-03-24T07:29:17.800Z,13
2019-03-24T07:39:23.473Z,13
2019-03-24T07:49:29.352Z,12
2019-03-24T07:59:34.488Z,12
2019-03-24T08:09:43.343Z,11
2019-03-24T08:19:49.860Z,14
2019-03-24T08:29:57.771Z,11
2019-03-24T08:40:03.814Z,15
2019-03-24T08:50:14.755Z,16
2019-03-24T09:01:05.424Z,23
2019-03-24T09:11:10.522Z,20
2019-03-24T09:19:29.415Z,23
2019-03-24T09:29:37.681Z,25
2019-03-24T09:39:43.436Z,27
2019-03-24T09:49:49.301Z,18
2019-03-24T09:59:56.656Z,22
2019-03-24T10:10:02.363Z,29
2019-03-24T10:20:08.831Z,24
2019-03-24T10:30:16.106Z,24
2019-03-24T10:41:04.150Z,27
2019-03-24T10:51:11.544Z,28
2019-03-24T11:01:20.119Z,30
2019-03-24T11:11:25.224Z,29
2019-03-24T11:21:30.544Z,28
2019-03-24T11:31:36.954Z,31
2019-03-24T11:41:44.341Z,29
2019-03-24T11:47:59.872Z,30
2019-03-24T11:58:07.237Z,29
2019-03-24T12:08:16.750Z,30
2019-03-24T12:18:22.472Z,29
2019-03-24T12:20:33.553Z,30
2019-03-24T12:30:39.922Z,32
2019-03-24T12:40:45.373Z,31
2019-03-24T12:43:58.112Z,29
2019-03-24T12:51:12.031Z,30
2019-03-24T13:01:20.971Z,30
2019-03-24T13:11:27.007Z,32
2019-03-24T13:21:35.181Z,30
2019-03-24T13:31:43.168Z,34
2019-03-24T13:41:50.173Z,39
2019-03-24T13:51:06.409Z,33
2019-03-24T14:01:11.719Z,35
2019-03-24T14:11:18.175Z,33
2019-03-24T14:21:22.500Z,24
2019-03-24T14:31:29.181Z,22
2019-03-24T14:41:36.859Z,18
2019-03-24T14:51:43.300Z,18
2019-03-24T15:01:49.901Z,18
2019-03-24T15:11:55.020Z,20
2019-03-24T15:22:01.229Z,16
2019-03-24T15:32:08.380Z,19
2019-03-24T15:42:15.093Z,19
2019-03-24T15:52:21.104Z,23
2019-03-24T16:02:28.528Z,20
2019-03-24T16:12:35.291Z,19
2019-03-24T16:22:42.545Z,16
2019-03-24T16:32:48.916Z,20
2019-03-24T16:42:54.578Z,19
2019-03-24T16:49:10.276Z,19
2019-03-24T16:59:17.708Z,18
2019-03-24T17:09:26.317Z,20
2019-03-24T17:19:32.255Z,17
2019-03-24T17:29:39.058Z,20
2019-03-24T17:39:46.546Z,20
2019-03-24T17:56:08.785Z,23
2019-03-24T18:06:15.033Z,27
2019-03-24T18:16:22.549Z,20
2019-03-24T18:26:27.851Z,21
2019-03-24T18:36:32.930Z,25
2019-03-24T18:46:41.318Z,24
2019-03-24T18:52:55.853Z,24
2019-03-24T19:03:01.497Z,25
2019-03-24T19:13:07.197Z,29
2019-03-24T19:23:14.078Z,39
2019-03-24T19:33:21.169Z,48
2019-03-24T19:43:29.179Z,54
2019-03-24T19:53:36.609Z,66
2019-03-24T20:13:49.967Z,66
2019-03-24T20:23:56.059Z,74
2019-03-24T20:34:05.309Z,74
2019-03-24T20:44:12.380Z,71
2019-03-24T20:54:15.388Z,71
2019-03-24T21:04:22.088Z,71
2019-03-24T21:14:28.006Z,68
2019-03-24T21:24:35.784Z,70
2019-03-24T21:34:41.441Z,66
2019-03-24T21:44:47.429Z,69
2019-03-24T21:54:53.004Z,64
2019-03-24T22:04:59.008Z,65
2019-03-24T22:15:04.872Z,69
2019-03-24T22:21:22.611Z,62
2019-03-24T22:31:30.592Z,70
2019-03-24T22:37:56.010Z,63
2019-03-24T22:47:59.812Z,65
2019-03-24T22:58:07.120Z,65
2019-03-24T23:08:12.819Z,72
2019-03-24T23:18:20.552Z,68
2019-03-24T23:28:26.522Z,66
2019-03-24T23:38:33.685Z,63
2019-03-24T23:48:41.350Z,60
2019-03-24T23:58:48.766Z,60
